createdAt,value
2022-08-24T00:00:22.552Z,25.03
2022-08-24T00:02:51.354Z,24.93
2022-08-24T00:05:21.812Z,24.89
2022-08-24T00:07:52.283Z,24.93
2022-08-24T00:10:22.285Z,24.88
2022-08-24T00:12:51.096Z,24.61
2022-08-24T00:15:19.995Z,24.27
2022-08-24T00:17:48.522Z,24.41
2022-08-24T00:20:17.622Z,24.61
2022-08-24T00:22:46.150Z,24.67
2022-08-24T00:25:17.398Z,24.64
2022-08-24T00:27:45.902Z,24.58
2022-08-24T00:30:18.041Z,24.34
2022-08-24T00:32:48.622Z,24.43
2022-08-24T00:35:19.720Z,24.48
2022-08-24T00:37:49.509Z,24.54
2022-08-24T00:40:23.902Z,24.55
2022-08-24T00:42:54.124Z,24.60
2022-08-24T00:45:24.904Z,24.55
2022-08-24T00:47:59.150Z,24.45
2022-08-24T00:50:37.947Z,24.46
2022-08-24T00:53:12.726Z,24.37
2022-08-24T00:55:46.918Z,24.35
2022-08-24T00:58:20.727Z,24.43
2022-08-24T01:00:55.234Z,24.43
2022-08-24T01:03:24.247Z,24.36
2022-08-24T01:05:52.894Z,24.24
2022-08-24T01:08:23.272Z,24.16
2022-08-24T01:10:56.606Z,24.26
2022-08-24T01:13:26.183Z,24.22
2022-08-24T01:15:59.084Z,24.17
2022-08-24T01:18:46.996Z,24.07
2022-08-24T01:21:19.214Z,24.07
2022-08-24T01:23:51.371Z,23.94
2022-08-24T01:26:23.374Z,24.06
2022-08-24T01:28:58.697Z,24.10
2022-08-24T01:31:28.328Z,24.10
2022-08-24T01:33:57.989Z,24.07
2022-08-24T01:36:34.206Z,24.05
2022-08-24T01:39:09.805Z,24.03
2022-08-24T01:41:38.341Z,24.04
2022-08-24T01:44:06.968Z,23.94
2022-08-24T01:46:35.563Z,23.90
2022-08-24T01:49:04.441Z,23.89
2022-08-24T01:51:33.939Z,23.92
2022-08-24T01:54:05.579Z,23.84
2022-08-24T01:56:35.552Z,23.87
2022-08-24T01:59:07.433Z,23.83
2022-08-24T02:01:39.919Z,23.75
2022-08-24T02:04:10.052Z,23.71
2022-08-24T02:06:39.837Z,23.67
2022-08-24T02:09:09.968Z,23.71
2022-08-24T02:11:39.160Z,23.73
2022-08-24T02:14:08.399Z,23.70
2022-08-24T02:16:36.903Z,23.63
2022-08-24T02:19:05.590Z,23.57
2022-08-24T02:21:34.235Z,23.42
2022-08-24T02:24:02.745Z,23.49
2022-08-24T02:26:32.952Z,23.49
2022-08-24T02:29:03.568Z,23.33
2022-08-24T02:31:33.536Z,23.01
2022-08-24T02:34:02.037Z,23.05
2022-08-24T02:36:31.303Z,23.14
2022-08-24T02:38:59.670Z,23.31
2022-08-24T02:41:28.453Z,23.36
2022-08-24T02:43:58.304Z,23.37
2022-08-24T02:50:32.347Z,23.28
2022-08-24T02:53:00.677Z,23.26
2022-08-24T02:55:29.069Z,23.16
2022-08-24T02:57:57.394Z,23.17
2022-08-24T03:00:27.942Z,23.28
2022-08-24T03:02:56.507Z,23.23
2022-08-24T03:05:26.291Z,23.24
2022-08-24T03:07:54.655Z,23.11
2022-08-24T03:10:23.375Z,23.10
2022-08-24T03:12:52.240Z,23.14
2022-08-24T03:15:23.032Z,23.08
2022-08-24T03:17:52.894Z,23.03
2022-08-24T03:20:23.665Z,23.05
2022-08-24T03:22:52.664Z,23.03
2022-08-24T03:25:24.803Z,22.94
2022-08-24T03:27:53.936Z,22.94
2022-08-24T03:30:22.898Z,22.79
2022-08-24T03:32:52.833Z,22.66
2022-08-24T03:35:22.069Z,22.80
2022-08-24T03:37:51.752Z,22.86
2022-08-24T03:40:24.497Z,22.82
2022-08-24T03:42:54.656Z,22.82
2022-08-24T03:45:23.980Z,22.83
2022-08-24T03:47:53.890Z,22.72
2022-08-24T03:50:24.261Z,22.74
2022-08-24T03:52:53.073Z,22.74
2022-08-24T03:55:21.659Z,22.79
2022-08-24T03:57:50.079Z,22.78
2022-08-24T04:00:19.110Z,22.66
2022-08-24T04:02:47.457Z,22.66
2022-08-24T04:05:17.244Z,22.74
2022-08-24T04:07:45.543Z,22.60
2022-08-24T04:10:14.516Z,22.58
2022-08-24T04:12:42.824Z,22.67
2022-08-24T04:15:13.192Z,22.61
2022-08-24T04:17:41.526Z,22.60
2022-08-24T04:20:11.789Z,22.67
2022-08-24T04:22:41.642Z,22.68
2022-08-24T04:25:12.039Z,22.66
2022-08-24T04:27:42.019Z,22.61
2022-08-24T04:30:14.224Z,22.60
2022-08-24T04:32:43.244Z,22.55
2022-08-24T04:35:12.111Z,22.49
2022-08-24T04:37:41.844Z,22.47
2022-08-24T04:40:12.124Z,22.40
2022-08-24T04:42:40.489Z,22.42
2022-08-24T04:45:11.143Z,22.41
2022-08-24T04:47:39.526Z,22.40
2022-08-24T04:50:09.364Z,22.42
2022-08-24T04:52:38.132Z,22.36
2022-08-24T04:55:08.937Z,22.38
2022-08-24T04:57:37.727Z,22.36
2022-08-24T05:00:09.663Z,22.51
2022-08-24T05:02:44.686Z,22.47
2022-08-24T05:05:13.495Z,22.67
2022-08-24T05:07:41.963Z,23.10
2022-08-24T05:10:12.544Z,23.47
2022-08-24T05:12:42.110Z,23.72
2022-08-24T05:15:11.511Z,23.95
2022-08-24T05:17:41.069Z,24.12
2022-08-24T05:20:12.615Z,24.13
2022-08-24T05:22:40.998Z,24.35
2022-08-24T05:25:11.295Z,24.54
2022-08-24T05:27:39.656Z,24.72
2022-08-24T05:30:09.662Z,24.93
2022-08-24T05:32:38.214Z,25.08
2022-08-24T05:35:09.639Z,25.16
2022-08-24T05:37:39.598Z,25.23
2022-08-24T05:40:14.795Z,25.50
2022-08-24T05:42:43.813Z,25.09
2022-08-24T05:45:13.156Z,24.84
2022-08-24T05:47:41.563Z,24.46
2022-08-24T05:50:10.548Z,24.34
2022-08-24T05:52:39.056Z,24.23
2022-08-24T05:55:09.170Z,23.98
2022-08-24T05:57:39.127Z,23.62
2022-08-24T06:00:10.553Z,23.26
2022-08-24T06:02:38.974Z,23.06
2022-08-24T06:05:08.416Z,22.97
2022-08-24T06:07:36.867Z,23.06
2022-08-24T06:10:32.772Z,23.63
2022-08-24T06:12:55.469Z,24.27
2022-08-24T06:15:24.115Z,25.47
2022-08-24T06:17:52.639Z,26.17
2022-08-24T06:20:21.561Z,26.93
2022-08-24T06:22:49.911Z,27.26
2022-08-24T06:25:36.344Z,27.39
2022-08-24T06:28:06.119Z,27.44
2022-08-24T06:30:34.928Z,27.17
2022-08-24T06:33:04.430Z,27.27
2022-08-24T06:35:33.101Z,27.09
2022-08-24T06:38:01.465Z,25.95
2022-08-24T06:40:30.134Z,24.67
2022-08-24T06:43:05.306Z,25.38
2022-08-24T06:45:34.424Z,25.83
2022-08-24T06:48:02.807Z,25.93
2022-08-24T06:50:31.190Z,26.65
2022-08-24T06:53:00.699Z,27.38
2022-08-24T06:55:29.730Z,26.55
2022-08-24T06:57:59.079Z,26.90
2022-08-24T07:00:28.769Z,26.75
2022-08-24T07:02:57.267Z,26.83
2022-08-24T07:05:25.956Z,27.32
2022-08-24T07:07:54.751Z,26.70
2022-08-24T07:10:23.359Z,26.78
2022-08-24T07:12:56.331Z,27.05
2022-08-24T07:15:25.137Z,25.77
2022-08-24T07:17:54.864Z,26.00
2022-08-24T07:20:23.610Z,26.31
2022-08-24T07:22:52.346Z,26.59
2022-08-24T07:25:21.009Z,27.54
2022-08-24T07:27:49.535Z,27.24
2022-08-24T07:30:26.899Z,26.77
2022-08-24T07:32:58.731Z,27.61
2022-08-24T07:35:28.467Z,27.42
2022-08-24T07:37:57.168Z,28.18
2022-08-24T07:40:27.069Z,27.99
2022-08-24T07:42:58.029Z,27.92
2022-08-24T07:45:28.407Z,28.60
2022-08-24T07:48:05.553Z,28.78
2022-08-24T07:50:33.956Z,29.18
2022-08-24T07:53:02.453Z,28.57
2022-08-24T07:55:30.918Z,28.92
2022-08-24T07:58:02.171Z,29.30
2022-08-24T08:00:30.658Z,30.26
2022-08-24T08:03:02.554Z,29.34
2022-08-24T08:05:31.441Z,29.10
2022-08-24T08:08:00.167Z,30.07
2022-08-24T08:10:31.128Z,30.26
2022-08-24T08:12:59.457Z,30.15
2022-08-24T08:15:28.081Z,31.02
2022-08-24T08:17:57.063Z,30.25
2022-08-24T08:20:27.210Z,30.13
2022-08-24T08:23:13.255Z,29.75
2022-08-24T08:25:46.869Z,30.02
2022-08-24T08:28:25.682Z,29.40
2022-08-24T08:30:55.055Z,29.75
2022-08-24T08:33:23.852Z,29.81
2022-08-24T08:36:02.523Z,29.91
2022-08-24T08:38:31.513Z,29.90
2022-08-24T08:41:26.674Z,30.26
2022-08-24T08:44:02.149Z,30.20
2022-08-24T08:46:50.526Z,29.25
2022-08-24T08:49:57.717Z,30.50
2022-08-24T08:53:05.702Z,30.61
2022-08-24T08:55:41.131Z,31.43
2022-08-24T08:58:25.179Z,30.35
2022-08-24T09:01:04.662Z,30.31
2022-08-24T09:04:12.746Z,30.16
2022-08-24T09:07:12.516Z,30.39
2022-08-24T09:10:04.501Z,30.61
2022-08-24T09:12:49.560Z,31.06
2022-08-24T09:15:53.316Z,30.71
2022-08-24T09:18:41.449Z,30.52
2022-08-24T09:21:42.310Z,31.20
2022-08-24T09:24:27.442Z,30.95
2022-08-24T09:27:07.122Z,30.22
2022-08-24T09:29:49.655Z,30.85
2022-08-24T09:32:51.331Z,30.70
2022-08-24T09:35:27.212Z,30.76
2022-08-24T09:38:02.371Z,30.91
2022-08-24T09:40:45.383Z,31.30
2022-08-24T09:43:45.504Z,32.06
2022-08-24T09:46:39.736Z,31.21
2022-08-24T09:49:37.952Z,31.78
2022-08-24T09:52:42.175Z,32.16
2022-08-24T09:55:40.658Z,32.43
2022-08-24T09:58:20.875Z,31.39
2022-08-24T10:01:03.323Z,31.83
2022-08-24T10:03:56.302Z,31.63
2022-08-24T10:06:39.008Z,31.57
2022-08-24T10:09:41.378Z,31.03
2022-08-24T10:12:22.633Z,31.59
2022-08-24T10:14:57.538Z,32.17
2022-08-24T10:17:41.542Z,31.75
2022-08-24T10:20:23.869Z,32.50
2022-08-24T10:23:07.989Z,31.81
2022-08-24T10:25:41.249Z,31.94
2022-08-24T10:28:41.345Z,32.57
2022-08-24T10:31:13.287Z,33.04
2022-08-24T10:34:00.865Z,32.29
2022-08-24T10:36:57.996Z,32.48
2022-08-24T10:40:02.186Z,32.21
2022-08-24T10:43:30.841Z,32.93
2022-08-24T10:46:37.652Z,32.72
2022-08-24T10:49:50.678Z,31.90
2022-08-24T10:52:52.594Z,33.04
2022-08-24T10:55:24.850Z,32.98
2022-08-24T10:58:20.633Z,32.30
2022-08-24T11:00:49.835Z,32.68
2022-08-24T11:03:28.036Z,31.73
2022-08-24T11:05:59.135Z,32.70
2022-08-24T11:08:30.153Z,32.37
2022-08-24T11:11:10.051Z,32.74
2022-08-24T11:13:51.079Z,32.20
2022-08-24T11:16:26.877Z,32.31
2022-08-24T11:18:58.204Z,32.23
2022-08-24T11:21:40.811Z,32.55
2022-08-24T11:24:13.603Z,32.66
2022-08-24T11:26:55.437Z,32.24
2022-08-24T11:29:30.660Z,31.86
2022-08-24T11:32:00.379Z,31.54
2022-08-24T11:34:39.637Z,31.67
2022-08-24T11:37:16.069Z,32.15
2022-08-24T11:39:44.718Z,31.84
2022-08-24T11:42:29.761Z,32.55
2022-08-24T11:45:07.818Z,32.30
2022-08-24T11:48:05.589Z,32.26
2022-08-24T11:50:42.073Z,32.60
2022-08-24T11:53:23.918Z,32.79
2022-08-24T11:56:00.991Z,31.52
2022-08-24T11:58:42.098Z,32.19
2022-08-24T12:01:19.903Z,32.50
2022-08-24T12:04:05.950Z,31.84
2022-08-24T12:06:46.178Z,32.33
2022-08-24T12:09:28.322Z,32.25
2022-08-24T12:12:09.685Z,31.54
2022-08-24T12:14:45.456Z,31.99
2022-08-24T12:17:20.440Z,32.01
2022-08-24T12:19:54.105Z,32.27
2022-08-24T12:22:25.003Z,32.19
2022-08-24T12:24:57.607Z,32.52
2022-08-24T12:27:29.908Z,32.82
2022-08-24T12:30:05.388Z,32.98
2022-08-24T12:32:40.824Z,33.17
2022-08-24T12:35:19.988Z,33.21
2022-08-24T12:37:53.126Z,33.22
2022-08-24T12:40:33.877Z,32.85
2022-08-24T12:43:06.524Z,32.47
2022-08-24T12:45:35.531Z,31.92
2022-08-24T12:48:11.868Z,32.12
2022-08-24T12:50:50.970Z,31.42
2022-08-24T12:54:05.901Z,31.23
2022-08-24T12:56:58.996Z,31.53
2022-08-24T12:59:30.952Z,31.65
2022-08-24T13:02:03.020Z,31.20
2022-08-24T13:04:41.456Z,31.63
2022-08-24T13:07:27.433Z,31.40
2022-08-24T13:10:09.428Z,31.34
2022-08-24T13:13:11.355Z,31.22
2022-08-24T13:16:02.949Z,31.30
2022-08-24T13:18:51.635Z,31.70
2022-08-24T13:21:38.276Z,31.78
2022-08-24T13:24:42.861Z,31.54
2022-08-24T13:27:49.928Z,31.51
2022-08-24T13:30:27.038Z,31.75
2022-08-24T13:33:09.893Z,32.13
2022-08-24T13:36:00.535Z,32.42
2022-08-24T13:38:59.410Z,32.73
2022-08-24T13:41:39.586Z,33.33
2022-08-24T13:44:18.024Z,33.76
2022-08-24T13:46:55.966Z,33.23
2022-08-24T13:49:54.236Z,33.20
2022-08-24T13:52:32.847Z,33.74
2022-08-24T13:55:22.803Z,33.14
2022-08-24T13:58:04.880Z,32.48
2022-08-24T14:00:44.171Z,32.38
2022-08-24T14:03:50.977Z,32.33
2022-08-24T14:06:28.747Z,31.70
2022-08-24T14:09:16.911Z,32.03
2022-08-24T14:12:06.598Z,32.24
2022-08-24T14:15:03.629Z,31.49
2022-08-24T14:17:55.138Z,31.81
2022-08-24T14:20:51.099Z,31.54
2022-08-24T14:23:31.266Z,32.04
2022-08-24T14:26:38.167Z,31.61
2022-08-24T14:29:31.514Z,31.62
2022-08-24T14:32:29.488Z,31.68
2022-08-24T14:35:15.418Z,32.00
2022-08-24T14:38:02.418Z,32.17
2022-08-24T14:40:37.479Z,32.48
2022-08-24T14:43:28.561Z,32.88
2022-08-24T14:46:12.375Z,33.06
2022-08-24T14:48:49.283Z,32.87
2022-08-24T14:51:37.736Z,32.87
2022-08-24T14:54:20.585Z,33.02
2022-08-24T14:57:00.682Z,32.88
2022-08-24T14:59:45.600Z,32.56
2022-08-24T15:02:59.179Z,32.67
2022-08-24T15:05:41.343Z,32.78
2022-08-24T15:08:15.939Z,32.51
2022-08-24T15:10:56.210Z,32.57
2022-08-24T15:13:29.817Z,32.90
2022-08-24T15:16:04.767Z,33.04
2022-08-24T15:18:39.411Z,33.19
2022-08-24T15:21:18.434Z,32.69
2022-08-24T15:24:09.332Z,32.71
2022-08-24T15:26:56.288Z,32.90
2022-08-24T15:29:27.672Z,32.78
2022-08-24T15:32:03.806Z,32.95
2022-08-24T15:34:39.018Z,32.68
2022-08-24T15:37:08.756Z,32.73
2022-08-24T15:39:38.161Z,32.66
2022-08-24T15:42:13.509Z,32.78
2022-08-24T15:44:45.023Z,32.77
2022-08-24T15:47:24.981Z,31.98
2022-08-24T15:49:57.654Z,32.46
2022-08-24T15:52:48.100Z,32.38
2022-08-24T15:55:39.313Z,32.05
2022-08-24T15:58:31.607Z,32.10
2022-08-24T16:01:36.831Z,32.12
2022-08-24T16:04:09.521Z,32.10
2022-08-24T16:06:42.324Z,32.08
2022-08-24T16:09:15.558Z,31.89
2022-08-24T16:11:49.731Z,32.05
2022-08-24T16:14:32.901Z,32.06
2022-08-24T16:17:18.699Z,31.79
2022-08-24T16:19:52.960Z,31.80
2022-08-24T16:22:30.870Z,31.92
2022-08-24T16:25:22.590Z,32.06
2022-08-24T16:27:58.633Z,31.79
2022-08-24T16:30:43.657Z,31.96
2022-08-24T16:33:32.801Z,31.66
2022-08-24T16:36:03.384Z,31.85
2022-08-24T16:38:34.056Z,31.61
2022-08-24T16:41:03.801Z,31.32
2022-08-24T16:43:32.604Z,31.27
2022-08-24T16:46:05.011Z,31.40
2022-08-24T16:48:33.838Z,31.83
2022-08-24T16:51:02.703Z,32.15
2022-08-24T16:53:31.401Z,31.99
2022-08-24T16:56:00.432Z,31.81
2022-08-24T16:58:33.180Z,31.25
2022-08-24T17:01:03.375Z,31.42
2022-08-24T17:03:32.008Z,31.64
2022-08-24T17:06:00.812Z,31.32
2022-08-24T17:08:29.716Z,31.49
2022-08-24T17:10:58.400Z,31.37
2022-08-24T17:13:48.525Z,31.44
2022-08-24T17:16:17.196Z,31.40
2022-08-24T17:18:45.955Z,31.27
2022-08-24T17:21:14.731Z,31.12
2022-08-24T17:23:44.314Z,31.18
2022-08-24T17:26:20.950Z,31.15
2022-08-24T17:28:51.796Z,31.21
2022-08-24T17:31:24.715Z,31.24
2022-08-24T17:33:54.582Z,31.19
2022-08-24T17:36:25.435Z,31.29
2022-08-24T17:38:57.430Z,31.16
2022-08-24T17:41:27.865Z,31.09
2022-08-24T17:43:57.228Z,30.95
2022-08-24T17:46:27.294Z,30.99
2022-08-24T17:48:57.594Z,31.02
2022-08-24T17:51:26.300Z,30.99
2022-08-24T17:53:55.002Z,30.98
2022-08-24T17:56:23.823Z,31.18
2022-08-24T17:59:09.920Z,31.41
2022-08-24T18:01:39.852Z,31.52
2022-08-24T18:04:08.593Z,31.57
2022-08-24T18:06:37.295Z,31.60
2022-08-24T18:09:08.749Z,31.59
2022-08-24T18:11:37.367Z,31.50
2022-08-24T18:14:06.002Z,31.34
2022-08-24T18:16:34.743Z,31.34
2022-08-24T18:19:04.907Z,30.89
2022-08-24T18:21:33.488Z,31.06
2022-08-24T18:24:02.060Z,31.20
2022-08-24T18:26:32.684Z,31.03
2022-08-24T18:29:09.950Z,31.09
2022-08-24T18:31:39.835Z,30.92
2022-08-24T18:34:11.408Z,31.06
2022-08-24T18:36:39.976Z,31.05
2022-08-24T18:39:08.597Z,31.00
2022-08-24T18:41:41.123Z,30.96
2022-08-24T18:44:15.495Z,30.96
2022-08-24T18:46:44.722Z,30.07
2022-08-24T18:49:14.887Z,30.07
2022-08-24T18:51:44.285Z,30.24
2022-08-24T18:54:16.552Z,30.38
2022-08-24T18:56:45.375Z,30.40
2022-08-24T18:59:15.758Z,30.29
2022-08-24T19:02:03.977Z,30.41
2022-08-24T19:04:34.469Z,30.45
2022-08-24T19:07:03.063Z,30.56
2022-08-24T19:09:34.360Z,30.45
2022-08-24T19:12:04.708Z,30.26
2022-08-24T19:14:33.701Z,29.50
2022-08-24T19:17:02.432Z,29.12
2022-08-24T19:19:31.079Z,28.49
2022-08-24T19:22:02.554Z,29.77
2022-08-24T19:24:32.526Z,30.02
2022-08-24T19:27:02.438Z,29.75
2022-08-24T19:29:55.440Z,29.99
2022-08-24T19:32:23.691Z,29.91
2022-08-24T19:34:52.888Z,30.09
2022-08-24T19:37:23.451Z,29.61
2022-08-24T19:39:53.281Z,29.86
2022-08-24T19:42:22.897Z,29.98
2022-08-24T19:45:12.022Z,29.96
2022-08-24T19:47:40.835Z,30.07
2022-08-24T19:50:10.724Z,30.07
2022-08-24T19:52:41.414Z,30.05
2022-08-24T19:55:11.398Z,29.72
2022-08-24T19:57:44.831Z,29.81
2022-08-24T20:00:30.605Z,29.84
2022-08-24T20:03:00.794Z,29.80
2022-08-24T20:05:30.105Z,29.68
2022-08-24T20:08:01.342Z,29.69
2022-08-24T20:10:30.658Z,29.65
2022-08-24T20:12:59.319Z,29.60
2022-08-24T20:15:28.219Z,29.55
2022-08-24T20:17:59.061Z,29.48
2022-08-24T20:20:29.093Z,29.46
2022-08-24T20:23:03.089Z,29.41
2022-08-24T20:25:32.015Z,29.35
2022-08-24T20:28:27.736Z,29.32
2022-08-24T20:30:51.284Z,29.27
2022-08-24T20:33:23.778Z,29.24
2022-08-24T20:35:52.996Z,29.19
2022-08-24T20:38:23.548Z,29.15
2022-08-24T20:40:53.112Z,29.07
2022-08-24T20:43:22.238Z,29.05
2022-08-24T20:45:52.885Z,29.02
2022-08-24T20:48:27.136Z,28.97
2022-08-24T20:50:56.384Z,28.95
2022-08-24T20:53:26.821Z,28.89
2022-08-24T20:55:58.750Z,28.85
2022-08-24T20:58:27.662Z,28.81
2022-08-24T21:00:56.313Z,28.78
2022-08-24T21:03:25.058Z,28.74
2022-08-24T21:05:53.717Z,28.78
2022-08-24T21:08:22.536Z,28.76
2022-08-24T21:10:52.544Z,28.71
2022-08-24T21:13:21.809Z,28.43
2022-08-24T21:15:52.348Z,28.54
2022-08-24T21:18:21.541Z,28.49
2022-08-24T21:21:03.278Z,28.11
2022-08-24T21:23:33.601Z,28.15
2022-08-24T21:26:07.323Z,27.66
2022-08-24T21:28:38.023Z,27.13
2022-08-24T21:31:06.642Z,27.34
2022-08-24T21:33:53.019Z,27.16
2022-08-24T21:36:24.567Z,27.53
2022-08-24T21:38:54.650Z,27.41
2022-08-24T21:41:24.584Z,27.52
2022-08-24T21:43:53.662Z,27.42
2022-08-24T21:46:24.041Z,26.96
2022-08-24T21:48:52.388Z,26.89
2022-08-24T21:51:20.719Z,26.86
2022-08-24T21:53:49.036Z,27.26
2022-08-24T21:56:23.755Z,27.48
2022-08-24T21:58:54.180Z,26.88
2022-08-24T22:01:22.699Z,26.74
2022-08-24T22:03:51.071Z,27.04
2022-08-24T22:06:19.610Z,26.49
2022-08-24T22:08:48.136Z,26.76
2022-08-24T22:11:20.148Z,27.29
2022-08-24T22:13:48.675Z,27.37
2022-08-24T22:16:18.859Z,27.66
2022-08-24T22:18:47.197Z,27.39
2022-08-24T22:21:18.966Z,27.53
2022-08-24T22:23:47.412Z,27.82
2022-08-24T22:26:16.336Z,27.94
2022-08-24T22:28:44.677Z,27.92
2022-08-24T22:31:19.972Z,27.99
2022-08-24T22:33:48.799Z,27.95
2022-08-24T22:36:18.070Z,27.98
2022-08-24T22:38:47.367Z,27.71
2022-08-24T22:41:16.196Z,27.60
2022-08-24T22:44:02.447Z,27.73
2022-08-24T22:46:32.165Z,27.81
2022-08-24T22:49:01.543Z,27.78
2022-08-24T22:51:30.323Z,27.72
2022-08-24T22:53:59.423Z,27.68
2022-08-24T22:56:30.701Z,27.56
2022-08-24T22:58:59.293Z,27.46
2022-08-24T23:01:33.128Z,27.55
2022-08-24T23:04:04.820Z,27.60
2022-08-24T23:06:33.551Z,27.60
2022-08-24T23:09:01.905Z,27.59
2022-08-24T23:11:32.357Z,27.53
2022-08-24T23:14:03.279Z,27.52
2022-08-24T23:16:35.911Z,27.49
2022-08-24T23:19:21.954Z,27.48
2022-08-24T23:21:50.440Z,27.45
2022-08-24T23:24:18.791Z,27.39
2022-08-24T23:26:47.332Z,27.33
2022-08-24T23:29:17.082Z,27.29
2022-08-24T23:31:47.435Z,27.26
2022-08-24T23:34:17.329Z,27.20
2022-08-24T23:36:46.117Z,27.15
2022-08-24T23:39:14.645Z,27.08
2022-08-24T23:41:47.324Z,27.05
2022-08-24T23:44:20.584Z,26.96
2022-08-24T23:46:51.421Z,26.95
2022-08-24T23:49:22.548Z,26.92
2022-08-24T23:51:52.657Z,26.86
2022-08-24T23:54:22.399Z,26.85
2022-08-24T23:56:52.825Z,26.79
2022-08-24T23:59:24.356Z,26.76
